Latest Coastal Weather Observations for Lihou Reef Lighthouse

IDQ60701

Issued at 6:15 pm EST Monday 20 October 2014 (issued every 10 minutes, with the page automatically refreshed every 10 minutes)

About coastal observations | Map of coastal stations | Coastal observations for QLD | Marine services | Other Formats
Station Details ID: 200880 Name: LIHOU REEF LIGHTHOUSE Lat: -17.13 Lon: 152.15 Height: 0.0 m
Data from the previous 72 hours. | See also: Recent months for locations in Queensland
Date/Time
EST
Temp

°C
Wind Pressure Rain
since 9am
mm
Weather Cloud Vis
km
Sea
Height
m
Swell
Dir
 
Speed
knots
Gust
knots
hPa Trend Height
m
Period
s
Dir
20/06:00pm 24.4 SE 23 27 1015.8 - - - - - - - - -
20/05:30pm 24.6 SE 22 26 1015.7 - - - - - - - - -
20/05:00pm 25.1 SE 21 24 1015.6 - - - - - - - - -
20/04:30pm 25.0 SE 21 25 1015.3 - - - - - - - - -
20/04:00pm 24.9 SE 19 23 1015.5 - - - - - - - - -
20/03:30pm 25.0 SE 20 23 1015.5 - - - - - - - - -
20/03:00pm 25.0 SE 20 24 1015.4 - - - - - - - - -
20/02:30pm 24.7 SE 20 24 1015.4 - - - - - - - - -
20/02:00pm 24.7 SE 22 26 1015.4 - - - - - - - - -
20/01:30pm 24.6 SE 21 25 1015.8 - - - - - - - - -
20/01:00pm 24.6 SE 21 24 1016.0 - - - - - - - - -
20/12:30pm 24.6 SE 23 27 1016.0 - - - - - - - - -
20/12:00pm 24.6 SE 22 27 1016.5 - - - - - - - - -
20/11:30am 24.8 SE 23 28 1016.7 - - - - - - - - -
20/11:00am 24.8 SE 22 26 1017.1 - - - - - - - - -
20/10:30am 24.9 SE 22 26 1017.7 - - - - - - - - -
20/10:00am 25.0 SE 23 27 1017.7 - - - - - - - - -
20/09:30am 24.8 SE 23 27 1017.9 - - - - - - - - -
20/09:00am 24.9 SE 24 27 1017.7 - - - - - - - - -
20/08:30am 24.6 SE 23 28 1018.0 - - - - - - - - -
20/08:00am 24.9 SE 22 25 1018.2 - - - - - - - - -
20/07:30am 24.8 SE 23 27 1017.7 - - - - - - - - -
20/07:00am 24.2 SE 22 26 1017.5 - - - - - - - - -
20/06:30am 24.7 SE 21 25 1017.2 - - - - - - - - -
20/06:00am 24.4 SE 22 26 1016.7 - - - - - - - - -
20/05:30am 24.1 SE 24 29 1015.9 - - - - - - - - -
20/05:00am 24.7 SE 23 26 1016.1 - - - - - - - - -
20/04:30am 24.5 SE 23 27 1015.8 - - - - - - - - -
20/04:00am 24.4 SE 23 27 1015.5 - - - - - - - - -
20/03:30am 24.6 SE 22 25 1015.7 - - - - - - - - -
20/03:00am 24.5 SE 22 26 1015.6 - - - - - - - - -
20/02:30am 24.5 SE 23 27 1015.7 - - - - - - - - -
20/02:00am 24.6 SE 22 26 1015.7 - - - - - - - - -
20/01:30am 24.7 SE 23 28 1015.6 - - - - - - - - -
20/01:00am 24.4 SE 25 30 1015.6 - - - - - - - - -
20/12:30am 24.6 SE 26 30 1015.8 - - - - - - - - -
20/12:00am 24.4 SE 26 31 1016.1 - - - - - - - - -
 
Date/Time
EST
Temp

°C
Wind Pressure Rain
since 9am
mm
Weather Cloud Vis
km
Sea
Height
m
Swell
Dir
 
Speed
knots
Gust
knots
hPa Trend Height
m
Period
s
Dir
19/11:30pm 24.5 SE 26 31 1016.8 - - - - - - - - -
19/11:00pm 24.4 SE 25 29 1017.4 - - - - - - - - -
19/10:30pm 23.2 SE 23 29 1018.0 - - - - - - - - -
19/10:17pm 24.2 SE 20 31 1018.1 - - - - - - - - -
19/10:00pm 23.3 SE 27 34 1018.0 - - - - - - - - -
19/09:30pm 24.6 SE 25 30 1017.8 - - - - - - - - -
19/09:00pm 24.5 SE 23 28 1017.7 - - - - - - - - -
19/08:30pm 24.8 SE 25 29 1017.4 - - - - - - - - -
19/08:00pm 24.9 SE 25 29 1017.1 - - - - - - - - -
19/07:30pm 24.9 SE 24 29 1016.9 - - - - - - - - -
19/07:00pm 24.7 SE 25 30 1016.7 - - - - - - - - -
19/06:30pm 24.5 SE 24 30 1016.6 - - - - - - - - -
19/06:00pm 23.8 SE 23 32 1016.5 - - - - - - - - -
19/05:30pm 25.0 SE 23 28 1016.3 - - - - - - - - -
19/05:00pm 25.1 SE 23 28 1015.8 - - - - - - - - -
19/04:30pm 24.8 SE 24 28 1015.4 - - - - - - - - -
19/04:00pm 24.7 SE 23 28 1015.1 - - - - - - - - -
19/03:30pm 24.7 SE 25 29 1014.9 - - - - - - - - -
19/03:00pm 24.5 SE 24 28 1014.9 - - - - - - - - -
19/02:30pm 24.4 SE 24 29 1014.8 - - - - - - - - -
19/02:00pm 25.0 SE 23 27 1015.3 - - - - - - - - -
19/01:30pm 24.7 SE 25 29 1015.3 - - - - - - - - -
19/01:00pm 25.0 SE 24 28 1015.7 - - - - - - - - -
19/12:30pm 24.8 SE 24 30 1015.9 - - - - - - - - -
19/12:00pm 25.1 SE 24 28 1016.4 - - - - - - - - -
19/11:30am 24.8 SE 22 27 1016.7 - - - - - - - - -
19/11:00am 24.8 SE 24 29 1017.2 - - - - - - - - -
19/10:30am 24.9 SE 22 26 1017.4 - - - - - - - - -
19/10:00am 24.6 SE 23 26 1017.6 - - - - - - - - -
19/09:30am 24.7 SE 23 28 1017.9 - - - - - - - - -
19/09:00am 24.9 SE 22 27 1017.8 - - - - - - - - -
19/08:30am 24.7 SE 24 28 1017.6 - - - - - - - - -
19/08:00am 24.8 SE 22 26 1017.7 - - - - - - - - -
19/07:30am 24.8 SE 21 25 1017.6 - - - - - - - - -
19/07:00am 24.9 SE 21 25 1017.3 - - - - - - - - -
19/06:30am 24.6 SE 21 26 1016.8 - - - - - - - - -
19/06:00am 24.3 SE 21 25 1016.6 - - - - - - - - -
19/05:30am 24.3 SE 21 24 1016.4 - - - - - - - - -
19/05:00am 24.4 SE 22 25 1016.3 - - - - - - - - -
19/04:30am 24.8 SE 21 24 1016.0 - - - - - - - - -
19/04:00am 24.3 SE 22 25 1015.6 - - - - - - - - -
19/03:30am 24.7 SE 22 26 1015.5 - - - - - - - - -
19/03:00am 24.5 SE 19 23 1015.4 - - - - - - - - -
19/02:30am 24.5 SE 20 25 1015.4 - - - - - - - - -
19/02:00am 24.4 SE 20 24 1015.6 - - - - - - - - -
19/01:30am 24.6 SE 20 24 1016.0 - - - - - - - - -
19/01:00am 24.9 SE 20 24 1016.3 - - - - - - - - -
19/12:30am 24.6 SE 19 23 1016.7 - - - - - - - - -
19/12:00am 24.6 SE 20 23 1016.9 - - - - - - - - -
 
Date/Time
EST
Temp

°C
Wind Pressure Rain
since 9am
mm
Weather Cloud Vis
km
Sea
Height
m
Swell
Dir
 
Speed
knots
Gust
knots
hPa Trend Height
m
Period
s
Dir
18/11:30pm 24.7 SE 21 25 1017.1 - - - - - - - - -
18/11:00pm 24.8 SE 20 24 1017.5 - - - - - - - - -
18/10:30pm 24.7 SE 20 23 1017.8 - - - - - - - - -
18/10:00pm 24.6 SE 23 28 1017.9 - - - - - - - - -
18/09:30pm 24.8 SE 22 26 1017.8 - - - - - - - - -
18/09:00pm 24.9 SE 22 25 1017.7 - - - - - - - - -
18/08:30pm 25.0 SE 20 23 1017.5 - - - - - - - - -
18/08:00pm 25.3 SE 19 23 1017.4 - - - - - - - - -
18/07:30pm 25.1 SE 19 23 1017.1 - - - - - - - - -
18/07:00pm 25.3 SE 19 23 1017.0 - - - - - - - - -
18/06:30pm 25.0 SE 20 24 1016.7 - - - - - - - - -
18/06:00pm 25.1 SE 19 25 1016.3 - - - - - - - - -
18/05:30pm 25.1 SE 20 25 1015.8 - - - - - - - - -
18/05:00pm 25.1 SE 20 24 1015.4 - - - - - - - - -
18/04:30pm 25.3 SE 19 24 1014.9 - - - - - - - - -
18/04:00pm 25.2 SE 20 23 1014.7 - - - - - - - - -
18/03:30pm 25.1 SE 20 23 1014.4 - - - - - - - - -
18/03:00pm 25.1 SE 20 24 1014.2 - - - - - - - - -
18/02:30pm 25.1 SE 20 24 1014.3 - - - - - - - - -
18/02:00pm 25.2 SE 20 25 1014.3 - - - - - - - - -
18/01:30pm 25.2 SSE 21 24 1014.7 - - - - - - - - -
18/01:00pm 25.3 SSE 19 24 1015.1 - - - - - - - - -
18/12:30pm 25.5 SE 19 22 1015.5 - - - - - - - - -
18/12:00pm 25.2 SE 18 22 1015.5 - - - - - - - - -
18/11:30am 25.1 SE 18 22 1016.0 - - - - - - - - -
18/11:00am 25.3 SSE 18 22 1016.4 - - - - - - - - -
18/10:30am 25.3 SE 17 20 1016.8 - - - - - - - - -
18/10:00am 25.5 SE 17 20 1017.0 - - - - - - - - -
18/09:30am 25.5 SE 18 21 1017.1 - - - - - - - - -
18/09:00am 25.3 SE 17 20 1017.0 - - - - - - - - -
18/08:30am 25.1 SE 18 22 1017.0 - - - - - - - - -
18/08:00am 25.5 SE 18 22 1016.9 - - - - - - - - -
18/07:30am 25.2 SE 18 22 1016.7 - - - - - - - - -
18/07:00am 25.2 SE 19 22 1016.4 - - - - - - - - -
18/06:30am 25.0 SE 19 23 1016.0 - - - - - - - - -
18/06:00am 24.9 SE 17 20 1015.6 - - - - - - - - -
18/05:30am 24.7 SE 17 20 1015.3 - - - - - - - - -
18/05:00am 24.8 SE 18 21 1015.0 - - - - - - - - -
18/04:30am 24.9 SE 18 21 1014.7 - - - - - - - - -
18/04:00am 24.9 SE 18 20 1014.6 - - - - - - - - -
18/03:30am 24.8 SE 18 21 1014.2 - - - - - - - - -
18/03:00am 24.9 SE 18 21 1014.2 - - - - - - - - -
18/02:30am 24.6 SSE 18 21 1014.2 - - - - - - - - -
18/02:00am 24.8 SE 17 21 1014.4 - - - - - - - - -
18/01:30am 24.7 SSE 19 23 1014.5 - - - - - - - - -
18/01:00am 24.7 SSE 19 22 1014.8 - - - - - - - - -
18/12:30am 24.8 SSE 18 21 1015.0 - - - - - - - - -
18/12:00am 24.8 SSE 18 21 1015.4 - - - - - - - - -
 
Date/Time
EST
Temp

°C
Wind Pressure Rain
since 9am
mm
Weather Cloud Vis
km
Sea
Height
m
Swell
Dir
 
Speed
knots
Gust
knots
hPa Trend Height
m
Period
s
Dir
17/11:30pm 24.9 SE 18 21 1015.6 - - - - - - - - -
17/11:00pm 25.0 SSE 18 21 1015.8 - - - - - - - - -
17/10:30pm 25.2 SE 17 20 1016.2 - - - - - - - - -
17/10:00pm 25.3 SE 18 21 1016.1 - - - - - - - - -
17/09:30pm 24.9 SSE 18 22 1016.2 - - - - - - - - -
17/09:00pm 25.1 SSE 19 22 1016.1 - - - - - - - - -
17/08:30pm 25.1 SSE 19 22 1015.9 - - - - - - - - -
17/08:00pm 25.1 SSE 19 22 1015.8 - - - - - - - - -
17/07:30pm 25.2 SSE 21 24 1015.6 - - - - - - - - -
17/07:00pm 25.1 SSE 19 23 1015.2 - - - - - - - - -
17/06:30pm 25.4 SSE 18 21 1015.0 - - - - - - - - -

Other Formats:

Comma delimited format used in spreadsheet applications
http://www.bom.gov.au/fwo/IDQ60701/IDQ60701.94293.axf

JavaScript Object Notation format (JSON) in row-major order
http://www.bom.gov.au/fwo/IDQ60701/IDQ60701.94293.json